Sheikhupura Weather



Sheikhupura's Current Weather

Temprature 25.03o scattered clouds

scattered clouds

Rain: 0 %

Min Temprature25.03o
Max Temprature25.03o
Humidity70
Wind Speed2.37 m/h
Sun Rise05:54:27
Sun Set17:56:37
Current Time: 26-Sep-2022 08:57:46
Lat/Lon: 31.7131, 73.9783




Sheikhupura's Geo Location



Sheikhupura's Weather Forecast

Time Overall Temp Min Temp Max Temp Humidity Wind Speed Rain
26-Sep-2022 (Mon)
11:00:00 scattered clouds 26.800 26.800 30.340 71 1.96 m/h 0 %
14:00:00 few clouds 30.620 30.620 33.420 53 2.17 m/h 0 %
17:00:00 clear sky 32.000 32.000 32.000 45 2.31 m/h 0 %
20:00:00 clear sky 26.730 26.730 26.730 63 2.74 m/h 0 %
23:00:00 clear sky 25.470 25.470 25.470 70 1.93 m/h 0 %
27-Sep-2022 (Tue)
02:00:00 clear sky 24.740 24.740 24.740 73 1.49 m/h 0 %
05:00:00 clear sky 23.960 23.960 23.960 78 1.95 m/h 0 %
08:00:00 clear sky 27.450 27.450 27.450 65 1.83 m/h 0 %
11:00:00 clear sky 33.230 33.230 33.230 43 0.86 m/h 0 %
14:00:00 clear sky 35.160 35.160 35.160 34 0.62 m/h 0 %
17:00:00 clear sky 33.770 33.770 33.770 38 1.37 m/h 0 %
20:00:00 clear sky 28.150 28.150 28.150 55 3.4 m/h 0 %
23:00:00 clear sky 26.840 26.840 26.840 63 2.98 m/h 0 %
28-Sep-2022 (Wed)
02:00:00 clear sky 25.930 25.930 25.930 68 2.66 m/h 0 %
05:00:00 clear sky 24.980 24.980 24.980 72 2.55 m/h 0 %
08:00:00 clear sky 28.170 28.170 28.170 60 2.64 m/h 0 %
11:00:00 clear sky 33.640 33.640 33.640 37 2.27 m/h 0 %
14:00:00 clear sky 36.020 36.020 36.020 29 1.67 m/h 0 %
17:00:00 clear sky 34.490 34.490 34.490 33 0.99 m/h 0 %
20:00:00 clear sky 28.460 28.460 28.460 57 3.42 m/h 0 %
23:00:00 clear sky 26.930 26.930 26.930 65 2.91 m/h 0 %
29-Sep-2022 (Thu)
02:00:00 clear sky 26.130 26.130 26.130 68 2.79 m/h 0 %
05:00:00 clear sky 25.180 25.180 25.180 72 2.7 m/h 0 %
08:00:00 clear sky 28.380 28.380 28.380 58 1.98 m/h 0 %
11:00:00 clear sky 34.660 34.660 34.660 31 1.18 m/h 0 %
14:00:00 clear sky 36.840 36.840 36.840 24 1.13 m/h 0 %
17:00:00 clear sky 35.000 35.000 35.000 28 1.28 m/h 0 %
20:00:00 clear sky 28.960 28.960 28.960 51 3.21 m/h 0 %
23:00:00 clear sky 27.650 27.650 27.650 58 3.13 m/h 0 %
30-Sep-2022 (Fri)
02:00:00 clear sky 26.260 26.260 26.260 62 2.57 m/h 0 %
05:00:00 clear sky 25.110 25.110 25.110 55 1.82 m/h 0 %
08:00:00 clear sky 28.550 28.550 28.550 40 0.3 m/h 0 %
11:00:00 clear sky 34.960 34.960 34.960 28 0.77 m/h 0 %
14:00:00 clear sky 37.080 37.080 37.080 23 1.57 m/h 0 %
17:00:00 clear sky 35.080 35.080 35.080 27 0.99 m/h 0 %
20:00:00 clear sky 29.070 29.070 29.070 47 3.27 m/h 0 %
23:00:00 clear sky 27.360 27.360 27.360 57 3.08 m/h 0 %
01-Oct-2022 (Sat)
02:00:00 clear sky 26.010 26.010 26.010 60 2.52 m/h 0 %
05:00:00 clear sky 24.940 24.940 24.940 55 2.17 m/h 0 %
08:00:00 clear sky 29.000 29.000 29.000 36 1.7 m/h 0 %

Famous Cities (61)